| time (UTC) | temp F | wind direction | speed knots | gust knots | rain 1hr in | rain 24hr in | rain mn in | humidity % | barometer mb |
| 20260505194510 | 79 | 218 | 3.5 | 17.4 | 0.00 | 0.01 | 0.01 | 43 | 1006.9 |
| 20260505194007 | 79 | 169 | 3.5 | 17.4 | 0.00 | 0.01 | 0.01 | 44 | 1007.0 |
| 20260505193506 | 79 | 185 | 7.0 | 13.9 | 0.00 | 0.01 | 0.01 | 42 | 1007.0 |
| 20260505193014 | 80 | 229 | 6.1 | 13.9 | 0.00 | 0.01 | 0.01 | 44 | 1006.9 |
| 20260505192510 | 80 | 195 | 7.0 | 12.2 | 0.00 | 0.01 | 0.01 | 43 | 1006.7 |
| 20260505192006 | 80 | 212 | 4.3 | 13.9 | 0.00 | 0.01 | 0.01 | 45 | 1006.7 |
| 20260505191521 | 79 | 161 | 4.3 | 13.9 | 0.00 | 0.01 | 0.01 | 44 | 1006.8 |
| 20260505191011 | 80 | 136 | 6.1 | 13.0 | 0.00 | 0.01 | 0.01 | 43 | 1006.8 |
| 20260505190509 | 80 | 198 | 4.3 | 13.0 | 0.00 | 0.01 | 0.01 | 43 | 1006.9 |
| 20260505190025 | 80 | 221 | 4.3 | 13.0 | 0.00 | 0.01 | 0.01 | 43 | 1007.0 |
| 20260505185510 | 80 | 211 | 2.6 | 10.4 | 0.00 | 0.01 | 0.01 | 45 | 1007.0 |
| 20260505185010 | 79 | 205 | 5.2 | 15.6 | 0.00 | 0.01 | 0.01 | 43 | 1007.2 |
| 20260505184527 | 79 | 223 | 7.8 | 14.8 | 0.00 | 0.01 | 0.01 | 44 | 1007.3 |
| 20260505184007 | 79 | 186 | 7.8 | 14.8 | 0.00 | 0.01 | 0.01 | 46 | 1007.5 |
| 20260505183506 | 79 | 219 | 4.3 | 12.2 | 0.00 | 0.01 | 0.01 | 42 | 1007.5 |
| 20260505183032 | 78 | 182 | 5.2 | 11.3 | 0.00 | 0.01 | 0.01 | 45 | 1007.5 |
| 20260505182507 | 79 | 221 | 4.3 | 13.9 | 0.00 | 0.01 | 0.01 | 44 | 1007.6 |
| 20260505182008 | 79 | 206 | 1.7 | 13.9 | 0.00 | 0.01 | 0.01 | 43 | 1007.6 |
| 20260505181516 | 79 | 177 | 5.2 | 10.4 | 0.00 | 0.01 | 0.01 | 44 | 1007.6 |
| 20260505181012 | 79 | 215 | 3.5 | 13.0 | 0.00 | 0.01 | 0.01 | 44 | 1007.7 |
| 20260505180509 | 79 | 180 | 5.2 | 14.8 | 0.00 | 0.01 | 0.01 | 43 | 1007.8 |
| 20260505180023 | 79 | 178 | 6.1 | 18.2 | 0.00 | 0.01 | 0.01 | 43 | 1007.7 |
| 20260505175515 | 79 | 225 | 7.0 | 18.2 | 0.00 | 0.01 | 0.01 | 42 | 1007.7 |
| 20260505175010 | 80 | 267 | 5.2 | 13.9 | 0.00 | 0.01 | 0.01 | 43 | 1007.7 |
| 20260505174524 | 79 | 221 | 5.2 | 15.6 | 0.00 | 0.01 | 0.01 | 42 | 1007.8 |
| 20260505174008 | 79 | 291 | 7.8 | 15.6 | 0.00 | 0.01 | 0.01 | 42 | 1007.8 |
| 20260505173511 | 79 | 221 | 4.3 | 11.3 | 0.00 | 0.01 | 0.01 | 43 | 1007.9 |
| 20260505173019 | 78 | 19 | 4.3 | 11.3 | 0.00 | 0.01 | 0.01 | 47 | 1008.0 |
| 20260505172506 | 79 | 215 | 3.5 | 11.3 | 0.00 | 0.01 | 0.01 | 44 | 1007.9 |
| 20260505172005 | 79 | 275 | 4.3 | 11.3 | 0.00 | 0.01 | 0.01 | 44 | 1008.0 |
| 20260505171515 | 78 | 209 | 2.6 | 8.7 | 0.00 | 0.01 | 0.01 | 47 | 1008.1 |
| 20260505171009 | 78 | 275 | 1.7 | 14.8 | 0.00 | 0.01 | 0.01 | 47 | 1008.1 |
| 20260505170506 | 77 | 189 | 7.0 | 15.6 | 0.00 | 0.01 | 0.01 | 46 | 1008.1 |
| 20260505170019 | 77 | 188 | 10.4 | 16.5 | 0.00 | 0.01 | 0.01 | 48 | 1008.4 |
| 20260505165507 | 78 | 202 | 6.1 | 16.5 | 0.00 | 0.01 | 0.01 | 47 | 1008.4 |
| 20260505165008 | 77 | 186 | 3.5 | 13.0 | 0.00 | 0.01 | 0.01 | 48 | 1008.4 |
| 20260505164524 | 77 | 200 | 5.2 | 12.2 | 0.00 | 0.01 | 0.01 | 47 | 1008.6 |
| 20260505164010 | 77 | 209 | 2.6 | 10.4 | 0.00 | 0.01 | 0.01 | 49 | 1008.6 |
| 20260505163511 | 77 | 189 | 3.5 | 8.7 | 0.00 | 0.01 | 0.01 | 48 | 1008.7 |
| 20260505163024 | 77 | 283 | 3.5 | 7.8 | 0.00 | 0.01 | 0.01 | 49 | 1009.0 |
| 20260505162509 | 77 | 238 | 1.7 | 7.8 | 0.00 | 0.01 | 0.01 | 50 | 1008.9 |
| 20260505162008 | 77 | 199 | 2.6 | 10.4 | 0.00 | 0.01 | 0.01 | 51 | 1009.0 |
| 20260505161512 | 76 | 261 | 2.6 | 10.4 | 0.00 | 0.01 | 0.01 | 49 | 1009.2 |
| 20260505161007 | 76 | 292 | 4.3 | 10.4 | 0.00 | 0.01 | 0.01 | 48 | 1009.1 |
| 20260505160506 | 76 | 306 | 2.6 | 10.4 | 0.00 | 0.01 | 0.01 | 50 | 1009.1 |
| 20260505153027 | 74 | 202 | 3.5 | 16.5 | 0.00 | 0.01 | 0.01 | 52 | 1009.0 |
| 20260505152511 | 74 | 205 | 5.2 | 16.5 | 0.00 | 0.01 | 0.01 | 53 | 1009.1 |
| 20260505152007 | 73 | 293 | 4.3 | 12.2 | 0.00 | 0.01 | 0.01 | 55 | 1009.2 |
| 20260505151528 | 73 | 250 | 7.8 | 12.2 | 0.00 | 0.01 | 0.01 | 54 | 1009.1 |
| 20260505151006 | 73 | 204 | 5.2 | 12.2 | 0.00 | 0.01 | 0.01 | 55 | 1009.1 |
| 20260505150508 | 73 | 194 | 5.2 | 13.9 | 0.00 | 0.01 | 0.01 | 55 | 1009.1 |
| 20260505140510 | 69 | 213 | 6.1 | 11.3 | 0.00 | 0.01 | 0.01 | 59 | 1009.5 |
| 20260505125017 | 64 | 192 | 2.6 | 5.2 | 0.00 | 0.01 | 0.01 | 66 | 1009.7 |
| 20260505124517 | 64 | 196 | 0.9 | 6.1 | 0.00 | 0.01 | 0.01 | 67 | 1009.9 |
| 20260505124014 | 64 | 194 | 2.6 | 6.1 | 0.00 | 0.01 | 0.01 | 65 | 1009.7 |
| 20260505123515 | 63 | 223 | 1.7 | 6.1 | 0.00 | 0.01 | 0.01 | 66 | 1009.7 |
| 20260505123022 | 63 | 222 | 1.7 | 8.7 | 0.00 | 0.01 | 0.01 | 66 | 1009.7 |
| 20260505122509 | 63 | 188 | 2.6 | 8.7 | 0.00 | 0.01 | 0.01 | 67 | 1009.8 |
| 20260505122014 | 63 | 186 | 3.5 | 7.8 | 0.00 | 0.01 | 0.01 | 68 | 1009.8 |
| 20260505121525 | 62 | 200 | 2.6 | 6.1 | 0.00 | 0.01 | 0.01 | 68 | 1009.7 |
| 20260505121009 | 62 | 231 | 3.5 | 6.1 | 0.00 | 0.01 | 0.01 | 68 | 1009.8 |
| 20260505120507 | 62 | 228 | 2.6 | 5.2 | 0.00 | 0.01 | 0.01 | 69 | 1009.7 |
| 20260505120028 | 61 | 232 | 1.7 | 3.5 | 0.00 | 0.01 | 0.01 | 69 | 1009.7 |
| 20260505115511 | 62 | 207 | 0.0 | 3.5 | 0.00 | 0.01 | 0.01 | 68 | 1009.6 |
| 20260505115009 | 62 | 207 | 1.7 | 3.5 | 0.00 | 0.01 | 0.01 | 68 | 1009.6 |
| 20260505114515 | 62 | 207 | 0.9 | 6.1 | 0.00 | 0.01 | 0.01 | 68 | 1009.6 |
| 20260505114009 | 62 | 223 | 2.6 | 6.1 | 0.00 | 0.01 | 0.01 | 68 | 1009.5 |
| 20260505113507 | 62 | 212 | 0.9 | 4.3 | 0.00 | 0.01 | 0.01 | 69 | 1009.5 |
| 20260505113018 | 61 | 299 | 0.9 | 7.0 | 0.00 | 0.01 | 0.01 | 70 | 1009.3 |
| 20260505112510 | 61 | 173 | 1.7 | 7.0 | 0.00 | 0.01 | 0.01 | 70 | 1008.9 |
| 20260505112003 | 61 | 202 | 0.0 | 4.3 | 0.00 | 0.01 | 0.01 | 70 | 1009.1 |
| 20260505111504 | 60 | 200 | 1.7 | 7.8 | 0.00 | 0.01 | 0.01 | 70 | 1009.0 |
| 20260505111005 | 60 | 213 | 1.7 | 8.7 | 0.00 | 0.01 | 0.01 | 70 | 1009.1 |
| 20260505110505 | 59 | 207 | 2.6 | 8.7 | 0.00 | 0.01 | 0.01 | 71 | 1009.1 |
| 20260505102013 | 60 | 208 | 1.7 | 6.1 | 0.00 | 0.01 | 0.01 | 70 | 1009.2 |
| 20260505101526 | 59 | 259 | 2.6 | 6.1 | 0.00 | 0.01 | 0.01 | 70 | 1008.9 |
| 20260505101008 | 59 | 207 | 0.9 | 5.2 | 0.00 | 0.01 | 0.01 | 71 | 1008.8 |
| 20260505100506 | 58 | 156 | 2.6 | 5.2 | 0.00 | 0.01 | 0.01 | 72 | 1008.7 |
| 20260505100007 | 58 | 217 | 0.9 | 2.6 | 0.00 | 0.01 | 0.01 | 73 | 1008.6 |
| 20260505095503 | 57 | 172 | 0.9 | 2.6 | 0.00 | 0.01 | 0.01 | 74 | 1008.5 |
| 20260505095009 | 57 | 206 | 0.0 | 1.7 | 0.00 | 0.01 | 0.01 | 73 | 1008.5 |
| 20260505094519 | 58 | 206 | 0.0 | 1.7 | 0.00 | 0.01 | 0.01 | 72 | 1008.6 |
| 20260505094006 | 58 | 206 | 0.0 | 0.9 | 0.00 | 0.01 | 0.01 | 71 | 1008.6 |
| 20260505093506 | 59 | 206 | 0.0 | 2.6 | 0.00 | 0.01 | 0.01 | 71 | 1008.5 |
| 20260505093016 | 59 | 206 | 0.0 | 2.6 | 0.00 | 0.01 | 0.01 | 71 | 1008.5 |
| 20260505092511 | 59 | 206 | 1.7 | 2.6 | 0.00 | 0.01 | 0.01 | 70 | 1008.5 |
| 20260505092010 | 59 | 202 | 0.0 | 1.7 | 0.00 | 0.01 | 0.01 | 70 | 1008.5 |
| 20260505091518 | 59 | 202 | 0.0 | 3.5 | 0.00 | 0.01 | 0.01 | 70 | 1008.5 |
| 20260505091011 | 60 | 202 | 0.9 | 3.5 | 0.00 | 0.01 | 0.01 | 69 | 1008.6 |
| 20260505090508 | 60 | 192 | 0.0 | 2.6 | 0.00 | 0.01 | 0.01 | 69 | 1008.5 |
| 20260505090025 | 60 | 232 | 0.0 | 4.3 | 0.00 | 0.01 | 0.01 | 69 | 1008.6 |
| 20260505085503 | 61 | 228 | 0.0 | 4.3 | 0.00 | 0.01 | 0.01 | 68 | 1008.6 |
| 20260505085003 | 61 | 178 | 0.9 | 6.1 | 0.00 | 0.01 | 0.01 | 68 | 1008.3 |
| 20260505084507 | 61 | 198 | 2.6 | 7.0 | 0.00 | 0.01 | 0.01 | 68 | 1008.3 |
| 20260505084004 | 60 | 188 | 4.3 | 7.0 | 0.00 | 0.01 | 0.01 | 68 | 1008.5 |
| 20260505083507 | 60 | 193 | 1.7 | 4.3 | 0.00 | 0.01 | 0.01 | 68 | 1008.4 |
| 20260505083016 | 61 | 173 | 0.9 | 4.3 | 0.00 | 0.01 | 0.01 | 68 | 1008.4 |
| 20260505082507 | 61 | 161 | 1.7 | 6.1 | 0.00 | 0.01 | 0.01 | 68 | 1008.4 |
| 20260505082010 | 61 | 218 | 2.6 | 7.0 | 0.00 | 0.01 | 0.01 | 68 | 1008.3 |
| 20260505081520 | 60 | 201 | 3.5 | 7.0 | 0.00 | 0.01 | 0.01 | 69 | 1008.3 |
| 20260505081011 | 60 | 202 | 3.5 | 6.1 | 0.00 | 0.01 | 0.01 | 69 | 1008.3 |
| 20260505080510 | 60 | 138 | 2.6 | 6.1 | 0.00 | 0.01 | 0.01 | 69 | 1008.3 |
| 20260505080022 | 60 | 213 | 0.0 | 1.7 | 0.00 | 0.01 | 0.01 | 69 | 1008.3 |
| 20260505075506 | 60 | 213 | 0.0 | 6.1 | 0.00 | 0.01 | 0.01 | 69 | 1008.4 |
| 20260505075013 | 60 | 150 | 1.7 | 6.1 | 0.00 | 0.01 | 0.01 | 68 | 1008.2 |
| 20260505074524 | 61 | 162 | 2.6 | 6.1 | 0.00 | 0.01 | 0.01 | 68 | 1008.2 |
| 20260505074004 | 61 | 188 | 2.6 | 7.0 | 0.00 | 0.01 | 0.01 | 68 | 1008.3 |
| 20260505073503 | 61 | 171 | 3.5 | 6.1 | 0.00 | 0.01 | 0.01 | 68 | 1008.2 |
| 20260505073012 | 60 | 166 | 4.3 | 5.2 | 0.00 | 0.01 | 0.01 | 69 | 1008.3 |
| 20260505072505 | 60 | 166 | 1.7 | 3.5 | 0.00 | 0.01 | 0.01 | 69 | 1008.2 |
| 20260505072007 | 61 | 165 | 0.0 | 1.7 | 0.00 | 0.01 | 0.01 | 68 | 1008.2 |
| 20260505071515 | 61 | 165 | 0.0 | 7.8 | 0.00 | 0.01 | 0.01 | 68 | 1008.2 |
| 20260505071008 | 61 | 165 | 0.0 | 7.8 | 0.00 | 0.01 | 0.01 | 67 | 1008.1 |
| 20260505070507 | 61 | 150 | 3.5 | 7.8 | 0.00 | 0.01 | 0.01 | 67 | 1008.0 |
| 20260505070030 | 62 | 175 | 1.7 | 6.1 | 0.00 | 0.01 | 0.01 | 66 | 1008.1 |
| 20260505065510 | 62 | 151 | 2.6 | 7.0 | 0.00 | 0.01 | 0.01 | 66 | 1008.0 |
| 20260505065008 | 62 | 146 | 3.5 | 7.0 | 0.00 | 0.01 | 0.01 | 66 | 1008.0 |
| 20260505064525 | 62 | 161 | 4.3 | 8.7 | 0.00 | 0.01 | 0.01 | 66 | 1008.0 |
| 20260505064012 | 61 | 161 | 3.5 | 8.7 | 0.00 | 0.01 | 0.01 | 67 | 1008.1 |
| 20260505063510 | 61 | 174 | 1.7 | 3.5 | 0.01 | 0.01 | 0.01 | 68 | 1008.2 |
| 20260505063011 | 61 | 171 | 1.7 | 3.5 | 0.01 | 0.01 | 0.01 | 67 | 1008.2 |
| 20260505062504 | 62 | 292 | 0.0 | 1.7 | 0.01 | 0.01 | 0.01 | 68 | 1008.2 |
| 20260505062009 | 63 | 246 | 0.0 | 3.5 | 0.01 | 0.01 | 0.01 | 67 | 1008.2 |
| 20260505061519 | 63 | 240 | 0.9 | 6.1 | 0.01 | 0.01 | 0.01 | 64 | 1008.2 |
| 20260505061008 | 62 | 209 | 1.7 | 7.0 | 0.01 | 0.01 | 0.01 | 66 | 1008.3 |
| 20260505060512 | 61 | 167 | 1.7 | 7.8 | 0.01 | 0.01 | 0.01 | 67 | 1008.2 |
| 20260505060017 | 61 | 187 | 4.3 | 7.8 | 0.01 | 0.01 | 0.01 | 69 | 1008.3 |
| 20260505055511 | 60 | 178 | 2.6 | 4.3 | 0.01 | 0.01 | 0.01 | 72 | 1008.3 |
| 20260505055013 | 61 | 150 | 2.6 | 3.5 | 0.01 | 0.01 | 0.01 | 71 | 1008.4 |
| 20260505054532 | 63 | 151 | 1.7 | 5.2 | 0.01 | 0.01 | 0.01 | 67 | 1008.5 |
| 20260505054014 | 63 | 177 | 2.6 | 5.2 | 0.01 | 0.01 | 0.01 | 64 | 1008.5 |
| 20260505053516 | 63 | 153 | 0.0 | 2.6 | 0.00 | 0.00 | 0.00 | 62 | 1008.7 |
| 20260505053023 | 64 | 176 | 0.0 | 3.5 | 0.00 | 0.00 | 0.00 | 61 | 1008.6 |
| 20260505052510 | 64 | 176 | 0.9 | 3.5 | 0.00 | 0.00 | 0.00 | 61 | 1008.5 |
| 20260505052007 | 64 | 214 | 1.7 | 4.3 | 0.00 | 0.00 | 0.00 | 60 | 1008.6 |
| 20260505051515 | 64 | 182 | 0.9 | 4.3 | 0.00 | 0.00 | 0.00 | 60 | 1008.6 |
| 20260505051005 | 64 | 233 | 0.9 | 5.2 | 0.00 | 0.00 | 0.00 | 60 | 1008.6 |
| 20260505050508 | 64 | 173 | 0.9 | 5.2 | 0.00 | 0.00 | 0.00 | 59 | 1008.5 |
| 20260505041544 | 64 | 169 | 4.3 | 11.3 | 0.00 | 0.00 | 0.00 | 58 | 1008.1 |
| 20260505041010 | 64 | 165 | 5.2 | 11.3 | 0.00 | 0.00 | 0.00 | 58 | 1008.1 |
| 20260505040508 | 64 | 161 | 3.5 | 7.8 | 0.00 | 0.00 | 0.00 | 57 | 1008.0 |
| 20260505040014 | 64 | 165 | 4.3 | 11.3 | 0.00 | 0.00 | 0.00 | 57 | 1008.1 |
| 20260505035511 | 64 | 205 | 4.3 | 11.3 | 0.00 | 0.00 | 0.00 | 56 | 1008.0 |
| 20260505035011 | 65 | 216 | 5.2 | 8.7 | 0.00 | 0.00 | 0.00 | 56 | 1008.1 |
| 20260505034524 | 65 | 175 | 4.3 | 7.8 | 0.00 | 0.00 | 0.00 | 56 | 1008.1 |
| 20260505034006 | 64 | 196 | 4.3 | 7.8 | 0.00 | 0.00 | 0.00 | 56 | 1008.0 |
| 20260505033508 | 64 | 204 | 3.5 | 9.6 | 0.00 | 0.00 | 0.00 | 56 | 1008.1 |
| 20260505033023 | 64 | 194 | 5.2 | 9.6 | 0.00 | 0.00 | 0.00 | 56 | 1008.0 |
| 20260505032510 | 64 | 183 | 3.5 | 8.7 | 0.00 | 0.00 | 0.00 | 56 | 1007.9 |
| 20260505032011 | 63 | 168 | 4.3 | 8.7 | 0.00 | 0.00 | 0.00 | 57 | 1008.1 |
| 20260505031537 | 63 | 177 | 1.7 | 4.3 | 0.00 | 0.00 | 0.00 | 56 | 1008.1 |
| 20260505031009 | 63 | 180 | 0.9 | 7.0 | 0.00 | 0.00 | 0.00 | 56 | 1008.2 |
| 20260505030508 | 64 | 189 | 3.5 | 7.8 | 0.00 | 0.00 | 0.00 | 55 | 1008.2 |
| 20260505030028 | 64 | 170 | 4.3 | 7.8 | 0.00 | 0.00 | 0.00 | 55 | 1008.2 |
| 20260505025504 | 64 | 161 | 3.5 | 7.0 | 0.00 | 0.00 | 0.00 | 55 | 1008.1 |
| 20260505025004 | 64 | 161 | 4.3 | 7.0 | 0.00 | 0.00 | 0.00 | 54 | 1008.2 |
| 20260505024509 | 65 | 146 | 2.6 | 6.1 | 0.00 | 0.00 | 0.00 | 54 | 1008.0 |
| 20260505024007 | 65 | 151 | 3.5 | 8.7 | 0.00 | 0.00 | 0.00 | 53 | 1008.1 |
| 20260505023505 | 65 | 156 | 3.5 | 9.6 | 0.00 | 0.00 | 0.00 | 52 | 1008.0 |
| 20260505023012 | 66 | 193 | 3.5 | 9.6 | 0.00 | 0.00 | 0.00 | 52 | 1008.0 |
| 20260505022507 | 66 | 169 | 5.2 | 9.6 | 0.00 | 0.00 | 0.00 | 51 | 1008.0 |
| 20260505022009 | 66 | 184 | 3.5 | 9.6 | 0.00 | 0.00 | 0.00 | 51 | 1008.0 |
| 20260505021509 | 66 | 175 | 1.7 | 5.2 | 0.00 | 0.00 | 0.00 | 51 | 1008.0 |
| 20260505021005 | 67 | 169 | 0.9 | 8.7 | 0.00 | 0.00 | 0.00 | 50 | 1008.0 |
| 20260505020503 | 67 | 171 | 4.3 | 8.7 | 0.00 | 0.00 | 0.00 | 49 | 1007.9 |
| 20260505020010 | 67 | 199 | 4.3 | 8.7 | 0.00 | 0.00 | 0.00 | 49 | 1008.0 |
| 20260505015505 | 67 | 202 | 2.6 | 8.7 | 0.00 | 0.00 | 0.00 | 49 | 1008.1 |
| 20260505015004 | 67 | 159 | 3.5 | 10.4 | 0.00 | 0.00 | 0.00 | 49 | 1008.0 |
| 20260505014513 | 67 | 188 | 5.2 | 8.7 | 0.00 | 0.00 | 0.00 | 49 | 1008.0 |
| 20260505014009 | 67 | 188 | 4.3 | 9.6 | 0.00 | 0.00 | 0.00 | 49 | 1008.0 |
| 20260505013511 | 68 | 179 | 3.5 | 9.6 | 0.00 | 0.00 | 0.00 | 48 | 1007.9 |
| 20260505013012 | 68 | 171 | 3.5 | 9.6 | 0.00 | 0.00 | 0.00 | 48 | 1007.9 |
| 20260505012506 | 68 | 157 | 2.6 | 9.6 | 0.00 | 0.00 | 0.00 | 48 | 1007.9 |
| 20260505012008 | 68 | 147 | 5.2 | 9.6 | 0.00 | 0.00 | 0.00 | 48 | 1007.9 |
| 20260505011512 | 68 | 191 | 3.5 | 8.7 | 0.00 | 0.00 | 0.00 | 48 | 1007.8 |
| 20260505011005 | 68 | 184 | 3.5 | 7.8 | 0.00 | 0.00 | 0.00 | 48 | 1007.8 |
| 20260505010507 | 68 | 175 | 3.5 | 6.1 | 0.00 | 0.00 | 0.00 | 48 | 1007.7 |
| 20260505010007 | 68 | 178 | 1.7 | 5.2 | 0.00 | 0.00 | 0.00 | 48 | 1007.7 |
| 20260505005504 | 68 | 229 | 2.6 | 7.8 | 0.00 | 0.00 | 0.00 | 48 | 1007.6 |
| 20260505005007 | 68 | 274 | 2.6 | 7.8 | 0.00 | 0.00 | 0.00 | 48 | 1007.6 |
| 20260505004512 | 68 | 230 | 4.3 | 7.0 | 0.00 | 0.00 | 0.00 | 48 | 1007.5 |
| 20260505004007 | 68 | 199 | 2.6 | 7.0 | 0.00 | 0.00 | 0.00 | 48 | 1007.5 |
| 20260505003511 | 68 | 227 | 3.5 | 7.0 | 0.00 | 0.00 | 0.00 | 48 | 1007.5 |
| 20260505003014 | 68 | 214 | 1.7 | 7.0 | 0.00 | 0.00 | 0.00 | 47 | 1007.5 |
| 20260505002507 | 68 | 169 | 1.7 | 9.6 | 0.00 | 0.00 | 0.00 | 47 | 1007.5 |
| 20260505002007 | 68 | 190 | 5.2 | 9.6 | 0.00 | 0.00 | 0.00 | 47 | 1007.5 |
| 20260505001514 | 68 | 240 | 2.6 | 7.0 | 0.00 | 0.00 | 0.00 | 48 | 1007.5 |
| 20260505001007 | 68 | 173 | 2.6 | 5.2 | 0.00 | 0.00 | 0.00 | 47 | 1007.4 |
| 20260505000504 | 68 | 212 | 2.6 | 7.8 | 0.00 | 0.00 | 0.00 | 48 | 1007.4 |
| 20260505000014 | 68 | 157 | 3.5 | 7.8 | 0.00 | 0.00 | 0.00 | 47 | 1007.4 |
| 20260504235510 | 69 | 194 | 5.2 | 8.7 | 0.00 | 0.00 | 0.00 | 47 | 1007.3 |
| 20260504235008 | 69 | 206 | 1.7 | 8.7 | 0.00 | 0.00 | 0.00 | 47 | 1007.4 |
| 20260504234510 | 69 | 203 | 4.3 | 9.6 | 0.00 | 0.00 | 0.00 | 46 | 1007.3 |
| 20260504234007 | 69 | 194 | 2.6 | 9.6 | 0.00 | 0.00 | 0.00 | 47 | 1007.3 |
| 20260504233511 | 70 | 199 | 3.5 | 9.6 | 0.00 | 0.00 | 0.00 | 46 | 1007.3 |
| 20260504233015 | 70 | 210 | 6.1 | 9.6 | 0.00 | 0.00 | 0.00 | 46 | 1007.3 |
| 20260504232511 | 70 | 196 | 3.5 | 11.3 | 0.00 | 0.00 | 0.00 | 46 | 1007.2 |
| 20260504232006 | 70 | 212 | 5.2 | 11.3 | 0.00 | 0.00 | 0.00 | 46 | 1007.2 |
| 20260504231516 | 70 | 196 | 3.5 | 12.2 | 0.00 | 0.00 | 0.00 | 46 | 1007.2 |
| 20260504231007 | 71 | 163 | 3.5 | 13.9 | 0.00 | 0.00 | 0.00 | 46 | 1007.2 |
| 20260504230508 | 71 | 203 | 7.0 | 13.9 | 0.00 | 0.00 | 0.00 | 45 | 1007.2 |
| 20260504230014 | 71 | 159 | 3.5 | 11.3 | 0.00 | 0.00 | 0.00 | 46 | 1007.3 |
| 20260504225509 | 71 | 212 | 2.6 | 13.9 | 0.00 | 0.00 | 0.00 | 45 | 1007.2 |
| 20260504225009 | 71 | 164 | 5.2 | 13.9 | 0.00 | 0.00 | 0.00 | 45 | 1007.2 |
| 20260504224521 | 71 | 140 | 6.1 | 13.0 | 0.00 | 0.00 | 0.00 | 45 | 1007.2 |
| 20260504224008 | 71 | 223 | 5.2 | 12.2 | 0.00 | 0.00 | 0.00 | 45 | 1007.2 |
| 20260504223507 | 72 | 200 | 3.5 | 11.3 | 0.00 | 0.00 | 0.00 | 45 | 1007.2 |
| 20260504223025 | 71 | 201 | 3.5 | 13.9 | 0.00 | 0.00 | 0.00 | 44 | 1007.3 |
| 20260504222507 | 71 | 228 | 7.0 | 14.8 | 0.00 | 0.00 | 0.00 | 44 | 1007.3 |
| 20260504222010 | 72 | 198 | 5.2 | 14.8 | 0.00 | 0.00 | 0.00 | 44 | 1007.2 |
| 20260504221517 | 72 | 202 | 5.2 | 12.2 | 0.00 | 0.00 | 0.00 | 44 | 1007.2 |
| 20260504221008 | 72 | 215 | 4.3 | 13.0 | 0.00 | 0.00 | 0.00 | 45 | 1007.1 |
| 20260504220509 | 72 | 188 | 5.2 | 13.0 | 0.00 | 0.00 | 0.00 | 44 | 1007.2 |
| 20260504220019 | 72 | 194 | 3.5 | 12.2 | 0.00 | 0.00 | 0.00 | 45 | 1007.2 |
| 20260504215507 | 72 | 195 | 4.3 | 12.2 | 0.00 | 0.00 | 0.00 | 44 | 1007.1 |
| 20260504215012 | 72 | 170 | 5.2 | 13.9 | 0.00 | 0.00 | 0.00 | 44 | 1007.2 |
| 20260504214522 | 73 | 159 | 4.3 | 13.9 | 0.00 | 0.00 | 0.00 | 43 | 1007.1 |
| 20260504214008 | 73 | 163 | 5.2 | 13.9 | 0.00 | 0.00 | 0.00 | 43 | 1007.1 |
| 20260504213512 | 73 | 188 | 4.3 | 13.9 | 0.00 | 0.00 | 0.00 | 44 | 1007.1 |
| 20260504213029 | 73 | 165 | 7.0 | 12.2 | 0.00 | 0.00 | 0.00 | 43 | 1007.1 |
| 20260504212506 | 73 | 191 | 6.1 | 11.3 | 0.00 | 0.00 | 0.00 | 42 | 1007.1 |
| 20260504212008 | 73 | 188 | 5.2 | 10.4 | 0.00 | 0.00 | 0.00 | 42 | 1007.2 |
| 20260504211523 | 74 | 146 | 5.2 | 10.4 | 0.00 | 0.00 | 0.00 | 42 | 1007.2 |
| 20260504211008 | 74 | 161 | 4.3 | 9.6 | 0.00 | 0.00 | 0.00 | 39 | 1007.1 |
| 20260504210508 | 74 | 192 | 3.5 | 7.8 | 0.00 | 0.00 | 0.00 | 39 | 1007.1 |
| 20260504210018 | 73 | 136 | 3.5 | 11.3 | 0.00 | 0.00 | 0.00 | 41 | 1007.1 |
| 20260504205510 | 73 | 184 | 5.2 | 12.2 | 0.00 | 0.00 | 0.00 | 40 | 1007.1 |
| 20260504205008 | 74 | 169 | 5.2 | 12.2 | 0.00 | 0.00 | 0.00 | 39 | 1007.2 |
| 20260504204533 | 74 | 198 | 5.2 | 12.2 | 0.00 | 0.00 | 0.00 | 40 | 1007.2 |
| 20260504204011 | 74 | 226 | 1.7 | 13.9 | 0.00 | 0.00 | 0.00 | 42 | 1007.2 |
| 20260504203508 | 74 | 229 | 5.2 | 13.0 | 0.00 | 0.00 | 0.00 | 38 | 1007.2 |
| 20260504203023 | 74 | 184 | 2.6 | 10.4 | 0.00 | 0.00 | 0.00 | 43 | 1007.3 |
| 20260504202506 | 73 | 185 | 2.6 | 12.2 | 0.00 | 0.00 | 0.00 | 41 | 1007.4 |
| 20260504202011 | 73 | 205 | 2.6 | 12.2 | 0.00 | 0.00 | 0.00 | 40 | 1007.6 |
| 20260504201515 | 73 | 191 | 2.6 | 12.2 | 0.00 | 0.00 | 0.00 | 41 | 1007.6 |
| 20260504201006 | 73 | 145 | 3.5 | 8.7 | 0.00 | 0.00 | 0.00 | 42 | 1007.6 |
| 20260504200510 | 73 | 273 | 3.5 | 10.4 | 0.00 | 0.00 | 0.00 | 43 | 1007.6 |
| 20260504200018 | 73 | 223 | 4.3 | 13.0 | 0.00 | 0.00 | 0.00 | 44 | 1007.8 |
| 20260504195509 | 73 | 209 | 7.0 | 13.0 | 0.00 | 0.00 | 0.00 | 42 | 1007.9 |
| 20260504195012 | 72 | 250 | 3.5 | 11.3 | 0.00 | 0.00 | 0.00 | 43 | 1008.1 |